createdAt,value
2019-04-30T00:00:55.443Z,8.59
2019-04-30T00:03:32.229Z,8.49
2019-04-30T00:06:01.243Z,8.53
2019-04-30T00:08:34.774Z,8.45
2019-04-30T00:11:01.188Z,8.45
2019-04-30T00:13:30.608Z,8.41
2019-04-30T00:16:01.614Z,8.40
2019-04-30T00:18:30.861Z,8.28
2019-04-30T00:21:01.255Z,8.34
2019-04-30T00:23:30.930Z,8.31
2019-04-30T00:26:06.011Z,8.35
2019-04-30T00:28:35.420Z,8.38
2019-04-30T00:31:05.537Z,8.33
2019-04-30T00:33:36.935Z,8.33
2019-04-30T00:36:06.030Z,8.35
2019-04-30T00:38:37.930Z,8.34
2019-04-30T00:41:13.077Z,8.39
2019-04-30T00:43:47.133Z,8.38
2019-04-30T00:46:17.457Z,8.46
2019-04-30T00:48:45.503Z,8.51
2019-04-30T00:51:21.230Z,8.50
2019-04-30T00:53:51.224Z,8.46
2019-04-30T00:56:19.991Z,8.44
2019-04-30T00:58:48.979Z,8.41
2019-04-30T01:01:48.025Z,8.44
2019-04-30T01:04:37.311Z,8.40
2019-04-30T01:07:08.635Z,8.38
2019-04-30T01:09:39.744Z,8.48
2019-04-30T01:12:09.333Z,8.47
2019-04-30T01:14:41.692Z,8.48
2019-04-30T01:17:12.306Z,8.51
2019-04-30T01:19:46.066Z,8.52
2019-04-30T01:22:13.613Z,8.51
2019-04-30T01:24:43.005Z,8.55
2019-04-30T01:27:12.106Z,8.56
2019-04-30T01:29:44.357Z,8.66
2019-04-30T01:32:19.823Z,8.83
2019-04-30T01:34:49.956Z,8.93
2019-04-30T01:37:20.304Z,8.97
2019-04-30T01:39:49.230Z,8.99
2019-04-30T01:42:18.664Z,9.12
2019-04-30T01:44:54.077Z,9.13
2019-04-30T01:47:27.892Z,9.18
2019-04-30T01:50:00.207Z,9.17
2019-04-30T01:52:49.328Z,9.26
2019-04-30T01:55:19.777Z,9.33
2019-04-30T01:58:02.530Z,9.44
2019-04-30T02:00:36.419Z,9.45
2019-04-30T02:03:05.829Z,9.48
2019-04-30T02:05:35.217Z,9.50
2019-04-30T02:08:04.610Z,9.56
2019-04-30T02:10:35.955Z,9.62
2019-04-30T02:13:06.155Z,9.62
2019-04-30T02:15:35.253Z,9.67
2019-04-30T02:18:04.585Z,9.67
2019-04-30T02:20:33.653Z,9.69
2019-04-30T02:23:02.701Z,9.68
2019-04-30T02:25:32.101Z,9.75
2019-04-30T02:28:03.471Z,9.78
2019-04-30T02:30:35.655Z,9.68
2019-04-30T02:33:05.075Z,9.71
2019-04-30T02:35:54.171Z,9.70
2019-04-30T02:38:32.303Z,9.71
2019-04-30T02:41:02.584Z,9.74
2019-04-30T02:43:33.219Z,9.73
2019-04-30T02:46:04.042Z,9.85
2019-04-30T02:48:33.932Z,9.80
2019-04-30T02:51:04.508Z,9.86
2019-04-30T02:54:10.768Z,9.81
2019-04-30T02:56:41.213Z,9.85
2019-04-30T02:59:10.522Z,9.77
2019-04-30T03:01:40.439Z,9.75
2019-04-30T03:04:10.259Z,9.79
2019-04-30T03:06:40.217Z,9.79
2019-04-30T03:09:10.749Z,9.70
2019-04-30T03:11:40.731Z,9.77
2019-04-30T03:14:10.995Z,9.70
2019-04-30T03:16:53.479Z,9.68
2019-04-30T03:19:44.812Z,9.67
2019-04-30T03:22:16.642Z,9.74
2019-04-30T03:24:45.663Z,9.69
2019-04-30T03:27:14.736Z,9.70
2019-04-30T03:29:44.527Z,9.61
2019-04-30T03:32:14.511Z,9.53
2019-04-30T03:34:44.378Z,9.52
2019-04-30T03:37:14.388Z,9.51
2019-04-30T03:39:44.032Z,9.52
2019-04-30T03:42:19.882Z,9.49
2019-04-30T03:44:49.746Z,9.50
2019-04-30T03:47:20.148Z,9.51
2019-04-30T03:49:50.111Z,9.45
2019-04-30T03:52:20.017Z,9.46
2019-04-30T03:54:49.743Z,9.37
2019-04-30T03:57:20.565Z,9.48
2019-04-30T03:59:52.238Z,9.47
2019-04-30T04:02:40.899Z,9.52
2019-04-30T04:05:21.720Z,9.58
2019-04-30T04:08:21.841Z,9.65
2019-04-30T04:11:12.610Z,9.63
2019-04-30T04:13:42.109Z,9.69
2019-04-30T04:16:11.200Z,9.71
2019-04-30T04:18:40.420Z,9.74
2019-04-30T04:21:16.508Z,9.72
2019-04-30T04:23:40.243Z,9.73
2019-04-30T04:26:09.650Z,9.74
2019-04-30T04:28:43.105Z,9.70
2019-04-30T04:31:09.649Z,9.73
2019-04-30T04:33:40.475Z,9.75
2019-04-30T04:36:09.520Z,9.82
2019-04-30T04:38:41.525Z,9.80
2019-04-30T04:41:10.612Z,9.80
2019-04-30T04:43:40.136Z,9.79
2019-04-30T04:46:09.866Z,9.86
2019-04-30T04:48:39.445Z,9.85
2019-04-30T04:51:19.786Z,9.81
2019-04-30T04:53:40.300Z,9.90
2019-04-30T04:56:10.204Z,9.89
2019-04-30T04:58:43.167Z,9.93
2019-04-30T05:01:12.337Z,9.92
2019-04-30T05:03:41.353Z,9.92
2019-04-30T05:06:11.804Z,9.96
2019-04-30T05:08:43.972Z,10.00
2019-04-30T05:11:13.470Z,10.02
2019-04-30T05:13:42.814Z,10.05
2019-04-30T05:16:12.958Z,10.05
2019-04-30T05:18:42.029Z,10.10
2019-04-30T05:21:14.499Z,10.08
2019-04-30T05:23:43.952Z,10.05
2019-04-30T05:26:15.039Z,10.02
2019-04-30T05:28:44.192Z,10.02
2019-04-30T05:31:13.570Z,10.01
2019-04-30T05:33:43.124Z,10.00
2019-04-30T05:36:12.196Z,10.05
2019-04-30T05:38:41.615Z,10.07
2019-04-30T05:41:10.662Z,10.12
2019-04-30T05:43:39.695Z,10.11
2019-04-30T05:46:11.023Z,10.08
2019-04-30T05:48:41.242Z,10.13
2019-04-30T05:51:10.978Z,10.24
2019-04-30T05:53:40.319Z,10.29
2019-04-30T05:56:09.906Z,10.32
2019-04-30T05:58:39.687Z,10.34
2019-04-30T06:01:09.668Z,10.36
2019-04-30T06:03:39.673Z,10.37
2019-04-30T06:06:11.263Z,10.41
2019-04-30T06:08:46.578Z,10.43
2019-04-30T06:11:34.596Z,10.50
2019-04-30T06:14:23.828Z,10.51
2019-04-30T06:17:11.537Z,10.61
2019-04-30T06:19:42.984Z,10.72
2019-04-30T06:22:12.554Z,10.78
2019-04-30T06:24:41.713Z,10.86
2019-04-30T06:27:11.298Z,10.92
2019-04-30T06:29:41.516Z,10.97
2019-04-30T06:32:12.370Z,11.01
2019-04-30T06:34:42.179Z,11.17
2019-04-30T06:37:11.220Z,11.17
2019-04-30T06:39:40.299Z,11.22
2019-04-30T06:42:14.761Z,11.27
2019-04-30T06:44:43.951Z,11.25
2019-04-30T06:47:18.939Z,11.26
2019-04-30T06:49:48.994Z,11.34
2019-04-30T06:52:21.461Z,11.39
2019-04-30T06:54:49.811Z,11.40
2019-04-30T06:57:19.973Z,11.41
2019-04-30T06:59:51.576Z,11.36
2019-04-30T07:02:20.676Z,11.47
2019-04-30T07:04:50.046Z,11.47
2019-04-30T07:07:23.016Z,11.42
2019-04-30T07:10:01.212Z,11.45
2019-04-30T07:12:38.876Z,11.48
2019-04-30T07:15:13.574Z,11.50
2019-04-30T07:17:41.863Z,11.54
2019-04-30T07:20:10.896Z,11.54
2019-04-30T07:22:48.954Z,11.65
2019-04-30T07:25:10.995Z,11.65
2019-04-30T07:27:40.677Z,11.66
2019-04-30T07:30:10.190Z,11.62
2019-04-30T07:32:39.722Z,11.77
2019-04-30T07:35:09.683Z,11.89
2019-04-30T07:37:39.277Z,11.94
2019-04-30T07:40:09.270Z,11.99
2019-04-30T07:42:44.712Z,12.14
2019-04-30T07:45:09.829Z,12.20
2019-04-30T07:47:40.182Z,12.03
2019-04-30T07:50:10.627Z,12.14
2019-04-30T07:52:57.740Z,12.14
2019-04-30T07:55:11.186Z,12.10
2019-04-30T07:57:40.659Z,12.20
2019-04-30T08:00:10.221Z,12.31
2019-04-30T08:02:44.333Z,12.25
2019-04-30T08:05:25.695Z,12.40
2019-04-30T08:07:54.786Z,12.24
2019-04-30T08:10:23.860Z,12.45
2019-04-30T08:12:53.183Z,12.48
2019-04-30T08:15:25.462Z,12.40
2019-04-30T08:18:03.502Z,12.48
2019-04-30T08:20:25.278Z,12.61
2019-04-30T08:22:54.314Z,12.50
2019-04-30T08:25:23.562Z,12.51
2019-04-30T08:27:56.208Z,12.73
2019-04-30T08:30:26.999Z,12.80
2019-04-30T08:32:57.012Z,12.83
2019-04-30T08:35:26.368Z,12.92
2019-04-30T08:37:55.414Z,13.01
2019-04-30T08:40:24.520Z,13.01
2019-04-30T08:42:54.198Z,13.04
2019-04-30T08:45:23.223Z,13.09
2019-04-30T08:47:52.657Z,13.13
2019-04-30T08:50:22.712Z,13.13
2019-04-30T08:52:51.835Z,13.07
2019-04-30T08:55:23.630Z,13.02
2019-04-30T08:57:52.698Z,13.11
2019-04-30T09:00:23.381Z,13.05
2019-04-30T09:02:52.756Z,12.90
2019-04-30T09:05:30.009Z,13.07
2019-04-30T09:07:59.842Z,12.92
2019-04-30T09:10:29.627Z,13.08
2019-04-30T09:12:59.776Z,12.91
2019-04-30T09:15:29.438Z,13.02
2019-04-30T09:18:03.777Z,13.00
2019-04-30T09:20:33.758Z,13.05
2019-04-30T09:23:03.156Z,13.07
2019-04-30T09:25:32.564Z,13.18
2019-04-30T09:28:04.407Z,13.26
2019-04-30T09:30:32.812Z,13.24
2019-04-30T09:33:02.502Z,13.31
2019-04-30T09:35:34.282Z,13.26
2019-04-30T09:38:03.507Z,13.29
2019-04-30T09:40:32.706Z,13.34
2019-04-30T09:43:02.350Z,13.49
2019-04-30T09:45:31.728Z,13.49
2019-04-30T09:48:01.151Z,13.52
2019-04-30T09:50:30.636Z,13.63
2019-04-30T09:53:00.829Z,13.58
2019-04-30T09:55:30.358Z,13.62
2019-04-30T09:57:59.418Z,13.76
2019-04-30T10:00:29.568Z,13.90
2019-04-30T10:02:59.918Z,13.95
2019-04-30T10:05:31.490Z,13.97
2019-04-30T10:08:00.941Z,14.00
2019-04-30T10:10:35.804Z,13.94
2019-04-30T10:13:05.263Z,13.83
2019-04-30T10:15:58.571Z,13.86
2019-04-30T10:18:28.009Z,13.96
2019-04-30T10:20:58.852Z,14.23
2019-04-30T10:23:27.836Z,14.40
2019-04-30T10:25:56.854Z,14.31
2019-04-30T10:28:26.212Z,14.41
2019-04-30T10:30:55.288Z,14.38
2019-04-30T10:33:24.320Z,14.49
2019-04-30T10:35:54.100Z,14.53
2019-04-30T10:38:23.662Z,14.46
2019-04-30T10:40:58.624Z,14.40
2019-04-30T10:43:26.738Z,14.53
2019-04-30T10:45:55.764Z,14.63
2019-04-30T10:48:25.152Z,14.67
2019-04-30T10:50:59.950Z,14.67
2019-04-30T10:53:31.978Z,14.68
2019-04-30T10:56:00.991Z,14.47
2019-04-30T10:58:30.383Z,14.44
2019-04-30T11:01:01.900Z,14.61
2019-04-30T11:03:30.170Z,14.55
2019-04-30T11:05:59.214Z,14.63
2019-04-30T11:08:28.232Z,14.63
2019-04-30T11:10:57.305Z,14.70
2019-04-30T11:13:26.399Z,14.63
2019-04-30T11:15:55.846Z,14.61
2019-04-30T11:18:25.932Z,14.45
2019-04-30T11:20:55.237Z,14.30
2019-04-30T11:23:24.859Z,14.48
2019-04-30T11:25:55.009Z,14.58
2019-04-30T11:28:25.342Z,14.49
2019-04-30T11:31:08.964Z,14.69
2019-04-30T11:33:38.424Z,14.78
2019-04-30T11:36:09.626Z,14.94
2019-04-30T11:38:38.859Z,15.12
2019-04-30T11:41:09.347Z,15.16
2019-04-30T11:43:40.851Z,15.09
2019-04-30T11:47:15.136Z,15.20
2019-04-30T11:49:44.221Z,15.14
2019-04-30T11:52:13.330Z,15.46
2019-04-30T11:54:49.222Z,15.76
2019-04-30T11:57:13.644Z,15.91
2019-04-30T11:59:42.717Z,15.90
2019-04-30T12:02:19.081Z,16.10
2019-04-30T12:04:49.429Z,16.20
2019-04-30T12:07:27.807Z,16.54
2019-04-30T12:10:09.471Z,16.86
2019-04-30T12:12:38.862Z,18.00
2019-04-30T12:15:09.286Z,18.53
2019-04-30T12:17:38.684Z,18.20
2019-04-30T12:20:08.623Z,18.95
2019-04-30T12:22:39.665Z,19.24
2019-04-30T12:25:10.015Z,19.27
2019-04-30T12:27:39.208Z,18.50
2019-04-30T12:30:08.993Z,18.64
2019-04-30T12:32:39.276Z,18.54
2019-04-30T12:35:09.284Z,17.85
2019-04-30T12:37:39.105Z,18.49
2019-04-30T12:40:10.825Z,18.41
2019-04-30T12:42:40.111Z,18.40
2019-04-30T12:45:09.592Z,18.42
2019-04-30T12:47:43.275Z,18.84
2019-04-30T12:50:21.092Z,18.78
2019-04-30T12:52:54.289Z,18.81
2019-04-30T12:55:46.037Z,18.49
2019-04-30T12:58:15.085Z,18.71
2019-04-30T13:00:45.516Z,18.26
2019-04-30T13:03:15.289Z,17.83
2019-04-30T13:05:45.906Z,18.17
2019-04-30T13:08:16.397Z,18.29
2019-04-30T13:10:46.642Z,18.30
2019-04-30T13:13:17.510Z,18.16
2019-04-30T13:15:47.125Z,18.25
2019-04-30T13:18:16.454Z,18.20
2019-04-30T13:20:45.603Z,18.41
2019-04-30T13:23:15.015Z,18.61
2019-04-30T13:25:51.247Z,19.30
2019-04-30T13:28:18.969Z,20.27
2019-04-30T13:30:49.473Z,20.77
2019-04-30T13:33:39.209Z,21.03
2019-04-30T13:36:08.839Z,21.21
2019-04-30T13:38:52.037Z,19.71
2019-04-30T13:41:30.537Z,19.94
2019-04-30T13:44:09.733Z,19.50
2019-04-30T13:46:39.649Z,19.64
2019-04-30T13:49:09.251Z,19.13
2019-04-30T13:51:38.968Z,19.03
2019-04-30T13:54:08.775Z,19.33
2019-04-30T13:56:39.688Z,19.40
2019-04-30T13:59:11.701Z,19.98
2019-04-30T14:01:41.456Z,19.98
2019-04-30T14:04:16.913Z,19.50
2019-04-30T14:06:56.482Z,19.30
2019-04-30T14:09:27.819Z,19.22
2019-04-30T14:11:58.230Z,19.22
2019-04-30T14:14:29.222Z,18.95
2019-04-30T14:17:01.188Z,18.91
2019-04-30T14:19:29.826Z,18.93
2019-04-30T14:21:59.557Z,18.65
2019-04-30T14:24:28.583Z,18.72
2019-04-30T14:26:59.084Z,18.86
2019-04-30T14:29:29.896Z,18.61
2019-04-30T14:31:58.963Z,18.65
2019-04-30T14:34:28.704Z,18.58
2019-04-30T14:36:59.360Z,18.75
2019-04-30T14:39:29.172Z,18.79
2019-04-30T14:42:00.079Z,18.74
2019-04-30T14:44:31.783Z,19.04
2019-04-30T14:47:40.816Z,19.44
2019-04-30T14:50:20.378Z,19.22
2019-04-30T14:53:17.503Z,20.14
2019-04-30T14:56:14.694Z,19.98
2019-04-30T14:59:01.707Z,19.41
2019-04-30T15:01:55.526Z,19.28
2019-04-30T15:04:24.940Z,19.38
2019-04-30T15:06:53.989Z,19.62
2019-04-30T15:09:23.099Z,19.17
2019-04-30T15:11:52.185Z,18.89
2019-04-30T15:14:21.728Z,18.85
2019-04-30T15:16:50.804Z,18.60
2019-04-30T15:19:19.906Z,18.72
2019-04-30T15:21:49.167Z,19.18
2019-04-30T15:24:26.418Z,19.91
2019-04-30T15:26:57.699Z,20.00
2019-04-30T15:29:26.275Z,19.94
2019-04-30T15:31:55.371Z,19.87
2019-04-30T15:34:24.775Z,19.78
2019-04-30T15:36:53.849Z,19.51
2019-04-30T15:39:33.696Z,19.21
2019-04-30T15:42:05.550Z,19.21
2019-04-30T15:44:40.036Z,19.22
2019-04-30T15:47:06.565Z,19.11
2019-04-30T15:49:35.811Z,19.22
2019-04-30T15:52:10.614Z,18.73
2019-04-30T15:54:39.307Z,19.17
2019-04-30T15:57:08.921Z,19.26
2019-04-30T15:59:39.861Z,18.81
2019-04-30T16:02:14.194Z,18.82
2019-04-30T16:04:56.506Z,18.71
2019-04-30T16:07:25.609Z,18.63
2019-04-30T16:10:29.023Z,18.58
2019-04-30T16:13:09.678Z,18.25
2019-04-30T16:15:39.163Z,18.43
2019-04-30T16:18:09.758Z,18.53
2019-04-30T16:20:39.343Z,19.14
2019-04-30T16:23:09.204Z,19.11
2019-04-30T16:25:43.467Z,19.35
2019-04-30T16:28:13.973Z,19.06
2019-04-30T16:30:43.663Z,18.83
2019-04-30T16:33:12.693Z,18.15
2019-04-30T16:35:44.417Z,17.92
2019-04-30T16:38:13.487Z,18.08
2019-04-30T16:40:42.551Z,18.00
2019-04-30T16:43:11.629Z,18.09
2019-04-30T16:45:40.679Z,17.66
2019-04-30T16:48:11.917Z,17.54
2019-04-30T16:50:40.965Z,17.55
2019-04-30T16:53:10.046Z,17.69
2019-04-30T16:55:39.090Z,17.98
2019-04-30T16:58:08.963Z,18.03
2019-04-30T17:00:39.230Z,18.02
2019-04-30T17:03:15.185Z,17.54
2019-04-30T17:05:49.975Z,17.45
2019-04-30T17:08:26.914Z,17.52
2019-04-30T17:11:33.109Z,17.36
2019-04-30T17:14:05.094Z,17.68
2019-04-30T17:16:34.984Z,17.58
2019-04-30T17:19:04.350Z,17.69
2019-04-30T17:21:33.635Z,17.61
2019-04-30T17:24:02.961Z,17.15
2019-04-30T17:26:32.404Z,17.00
2019-04-30T17:29:01.735Z,16.81
2019-04-30T17:31:30.814Z,16.68
2019-04-30T17:34:02.277Z,16.48
2019-04-30T17:36:31.936Z,16.52
2019-04-30T17:39:00.984Z,16.50
2019-04-30T17:41:30.295Z,16.48
2019-04-30T17:43:59.677Z,16.02
2019-04-30T17:46:28.816Z,16.30
2019-04-30T17:48:59.260Z,15.81
2019-04-30T17:51:29.565Z,16.06
2019-04-30T17:54:13.323Z,16.08
2019-04-30T17:56:43.245Z,16.15
2019-04-30T17:59:12.382Z,15.91
2019-04-30T18:01:43.821Z,16.09
2019-04-30T18:04:13.059Z,15.90
2019-04-30T18:06:42.143Z,15.78
2019-04-30T18:09:11.862Z,15.33
2019-04-30T18:11:40.916Z,15.00
2019-04-30T18:14:10.105Z,15.02
2019-04-30T18:16:39.203Z,14.86
2019-04-30T18:19:21.835Z,14.71
2019-04-30T18:21:56.845Z,14.68
2019-04-30T18:24:45.770Z,14.51
2019-04-30T18:27:24.175Z,14.47
2019-04-30T18:29:53.262Z,14.42
2019-04-30T18:32:24.203Z,14.31
2019-04-30T18:34:53.283Z,14.20
2019-04-30T18:37:22.723Z,14.27
2019-04-30T18:39:52.143Z,14.51
2019-04-30T18:42:21.645Z,14.41
2019-04-30T18:44:51.005Z,14.41
2019-04-30T18:47:20.089Z,14.11
2019-04-30T18:49:49.576Z,13.90
2019-04-30T18:52:18.913Z,13.84
2019-04-30T18:54:49.498Z,13.82
2019-04-30T18:57:18.696Z,13.94
2019-04-30T18:59:47.767Z,13.64
2019-04-30T19:02:17.444Z,13.60
2019-04-30T19:04:49.622Z,13.30
2019-04-30T19:07:29.811Z,13.65
2019-04-30T19:10:33.172Z,13.51
2019-04-30T19:13:21.176Z,13.20
2019-04-30T19:16:19.827Z,13.11
2019-04-30T19:18:48.137Z,12.99
2019-04-30T19:21:17.246Z,12.77
2019-04-30T19:23:48.592Z,12.94
2019-04-30T19:26:19.045Z,12.85
2019-04-30T19:28:49.288Z,12.57
2019-04-30T19:31:19.948Z,12.48
2019-04-30T19:33:51.534Z,12.30
2019-04-30T19:36:22.150Z,11.99
2019-04-30T19:38:51.659Z,12.02
2019-04-30T19:41:20.818Z,11.90
2019-04-30T19:43:50.317Z,11.78
2019-04-30T19:46:19.924Z,11.75
2019-04-30T19:48:50.697Z,11.47
2019-04-30T19:51:20.444Z,11.42
2019-04-30T19:53:49.493Z,11.28
2019-04-30T19:56:20.678Z,11.26
2019-04-30T19:59:01.818Z,11.33
2019-04-30T20:01:20.979Z,11.22
2019-04-30T20:03:50.019Z,11.17
2019-04-30T20:06:19.206Z,11.14
2019-04-30T20:08:48.551Z,11.04
2019-04-30T20:11:17.992Z,11.03
2019-04-30T20:13:48.936Z,10.95
2019-04-30T20:16:19.605Z,10.89
2019-04-30T20:18:49.079Z,10.71
2019-04-30T20:21:27.922Z,10.71
2019-04-30T20:23:51.205Z,10.67
2019-04-30T20:26:21.409Z,10.64
2019-04-30T20:28:50.462Z,10.55
2019-04-30T20:31:19.521Z,10.52
2019-04-30T20:33:49.025Z,10.45
2019-04-30T20:36:19.145Z,10.30
2019-04-30T20:39:19.494Z,10.27
2019-04-30T20:41:51.750Z,10.32
2019-04-30T20:44:20.790Z,10.26
2019-04-30T20:46:49.854Z,10.16
2019-04-30T20:49:19.364Z,10.16
2019-04-30T20:51:55.585Z,10.13
2019-04-30T20:54:19.322Z,10.12
2019-04-30T20:56:51.052Z,10.05
2019-04-30T20:59:20.514Z,10.00
2019-04-30T21:01:49.890Z,10.01
2019-04-30T21:04:20.989Z,9.94
2019-04-30T21:06:53.137Z,9.94
2019-04-30T21:09:22.548Z,9.94
2019-04-30T21:11:54.245Z,9.94
2019-04-30T21:14:23.679Z,9.90
2019-04-30T21:16:53.008Z,9.91
2019-04-30T21:19:25.111Z,9.80
2019-04-30T21:21:54.164Z,9.80
2019-04-30T21:24:23.228Z,9.72
2019-04-30T21:26:52.283Z,9.60
2019-04-30T21:29:21.314Z,9.60
2019-04-30T21:32:14.631Z,9.56
2019-04-30T21:35:02.718Z,9.61
2019-04-30T21:37:33.938Z,9.53
2019-04-30T21:40:05.087Z,9.55
2019-04-30T21:42:34.326Z,9.73
2019-04-30T21:45:05.968Z,9.54
2019-04-30T21:47:35.016Z,9.56
2019-04-30T21:50:04.096Z,9.51
2019-04-30T21:52:33.128Z,9.46
2019-04-30T21:55:02.217Z,9.36
2019-04-30T21:57:32.754Z,9.25
2019-04-30T22:00:02.554Z,9.24
2019-04-30T22:02:31.578Z,9.17
2019-04-30T22:05:00.636Z,9.05
2019-04-30T22:07:30.057Z,9.04
2019-04-30T22:09:59.110Z,8.99
2019-04-30T22:12:28.444Z,9.09
2019-04-30T22:14:58.914Z,9.05
2019-04-30T22:17:29.279Z,9.08
2019-04-30T22:19:59.635Z,9.05
2019-04-30T22:22:31.572Z,9.02
2019-04-30T22:25:00.678Z,8.94
2019-04-30T22:27:29.742Z,8.88
2019-04-30T22:29:59.064Z,8.90
2019-04-30T22:32:28.078Z,8.78
2019-04-30T22:35:19.200Z,8.74
2019-04-30T22:37:50.635Z,8.70
2019-04-30T22:40:19.741Z,8.67
2019-04-30T22:42:49.680Z,8.72
2019-04-30T22:45:24.421Z,8.73
2019-04-30T22:47:53.450Z,8.71
2019-04-30T22:50:22.494Z,8.63
2019-04-30T22:52:51.524Z,8.56
2019-04-30T22:55:20.590Z,8.44
2019-04-30T22:57:51.745Z,8.55
2019-04-30T23:00:32.518Z,8.46
2019-04-30T23:03:10.944Z,8.53
2019-04-30T23:05:40.351Z,8.42
2019-04-30T23:08:09.384Z,8.40
2019-04-30T23:10:38.772Z,8.42
2019-04-30T23:13:08.136Z,8.41
2019-04-30T23:15:39.989Z,8.42
2019-04-30T23:18:12.239Z,8.42
2019-04-30T23:20:41.272Z,8.30
2019-04-30T23:23:10.371Z,8.29
2019-04-30T23:25:39.631Z,8.33
2019-04-30T23:28:08.634Z,8.35
2019-04-30T23:30:38.063Z,8.29
2019-04-30T23:33:07.098Z,8.28
2019-04-30T23:35:39.086Z,8.26
2019-04-30T23:38:09.879Z,8.27
2019-04-30T23:40:50.689Z,8.39
2019-04-30T23:43:20.342Z,8.39
2019-04-30T23:45:49.538Z,8.39
2019-04-30T23:48:18.608Z,8.22
2019-04-30T23:50:48.039Z,8.19
2019-04-30T23:53:17.065Z,8.17
2019-04-30T23:55:46.082Z,8.13
2019-04-30T23:58:15.528Z,8.04
